createdAt,value
2023-01-22T00:01:23.067Z,101.00
2023-01-22T00:03:53.263Z,105.97
2023-01-22T00:06:23.648Z,106.47
2023-01-22T00:08:52.476Z,100.93
2023-01-22T00:11:21.205Z,107.73
2023-01-22T00:13:49.466Z,101.13
2023-01-22T00:16:20.325Z,99.57
2023-01-22T00:18:49.024Z,102.63
2023-01-22T00:21:18.065Z,105.03
2023-01-22T00:23:46.481Z,105.93
2023-01-22T00:26:16.744Z,97.33
2023-01-22T00:28:46.570Z,94.37
2023-01-22T00:31:16.520Z,80.63
2023-01-22T00:33:46.993Z,89.03
2023-01-22T00:36:17.151Z,91.70
2023-01-22T00:38:45.704Z,80.00
2023-01-22T00:41:15.040Z,79.53
2023-01-22T00:43:43.473Z,82.43
2023-01-22T00:46:14.918Z,89.47
2023-01-22T00:48:45.340Z,82.03
2023-01-22T00:51:15.827Z,91.63
2023-01-22T00:53:44.743Z,82.33
2023-01-22T00:56:14.537Z,79.33
2023-01-22T00:58:43.042Z,78.23
2023-01-22T01:01:13.247Z,78.17
2023-01-22T01:03:42.119Z,79.17
2023-01-22T01:06:16.520Z,82.40
2023-01-22T01:08:47.758Z,71.60
2023-01-22T01:11:17.854Z,72.93
2023-01-22T01:13:46.560Z,77.80
2023-01-22T01:16:16.820Z,72.97
2023-01-22T01:18:47.109Z,75.33
2023-01-22T01:21:17.229Z,70.30
2023-01-22T01:23:45.817Z,74.13
2023-01-22T01:26:15.692Z,73.70
2023-01-22T01:28:45.511Z,73.23
2023-01-22T01:31:16.529Z,69.03
2023-01-22T01:33:45.312Z,71.20
2023-01-22T01:36:18.297Z,69.43
2023-01-22T01:38:48.560Z,68.33
2023-01-22T01:41:20.677Z,83.33
2023-01-22T01:44:10.619Z,65.63
2023-01-22T01:46:44.182Z,75.90
2023-01-22T01:49:20.876Z,77.43
2023-01-22T01:51:51.325Z,72.17
2023-01-22T01:54:20.139Z,75.97
2023-01-22T01:56:52.051Z,61.73
2023-01-22T01:59:22.125Z,79.13
2023-01-22T02:01:54.686Z,77.03
2023-01-22T02:04:24.836Z,76.47
2023-01-22T02:06:56.558Z,66.90
2023-01-22T02:09:25.204Z,67.33
2023-01-22T02:11:55.220Z,70.00
2023-01-22T02:14:28.050Z,67.97
2023-01-22T02:17:03.860Z,65.27
2023-01-22T02:19:32.297Z,63.00
2023-01-22T02:22:02.108Z,70.17
2023-01-22T02:24:31.961Z,68.50
2023-01-22T02:27:00.215Z,65.43
2023-01-22T02:29:29.116Z,65.43
2023-01-22T02:31:57.419Z,67.10
2023-01-22T02:34:25.767Z,66.93
2023-01-22T02:36:55.286Z,65.73
2023-01-22T02:39:24.956Z,61.27
2023-01-22T02:41:54.569Z,64.30
2023-01-22T02:44:23.151Z,74.57
2023-01-22T02:46:51.580Z,67.10
2023-01-22T02:49:19.961Z,65.40
2023-01-22T02:51:48.602Z,72.07
2023-01-22T02:54:17.002Z,64.43
2023-01-22T02:56:46.699Z,64.90
2023-01-22T02:59:15.061Z,75.07
2023-01-22T03:01:43.484Z,74.27
2023-01-22T03:04:11.898Z,78.47
2023-01-22T03:06:43.015Z,73.47
2023-01-22T03:09:13.037Z,76.60
2023-01-22T03:11:43.674Z,71.30
2023-01-22T03:14:35.082Z,70.13
2023-01-22T03:17:21.623Z,73.93
2023-01-22T03:20:07.632Z,71.27
2023-01-22T03:22:35.976Z,64.53
2023-01-22T03:25:04.380Z,64.97
2023-01-22T03:27:33.658Z,66.20
2023-01-22T03:30:03.551Z,66.47
2023-01-22T03:32:35.821Z,56.23
2023-01-22T03:35:04.556Z,66.00
2023-01-22T03:37:46.309Z,63.57
2023-01-22T03:40:14.739Z,67.23
2023-01-22T03:42:43.209Z,64.43
2023-01-22T03:45:13.405Z,62.33
2023-01-22T03:47:41.823Z,53.33
2023-01-22T03:50:26.687Z,52.40
2023-01-22T03:52:57.718Z,58.00
2023-01-22T03:55:26.415Z,58.77
2023-01-22T03:57:55.941Z,50.47
2023-01-22T04:00:25.848Z,54.33
2023-01-22T04:02:54.849Z,57.53
2023-01-22T04:05:27.775Z,55.27
2023-01-22T04:07:56.297Z,54.10
2023-01-22T04:10:28.518Z,53.43
2023-01-22T04:12:57.608Z,53.73
2023-01-22T04:15:27.364Z,54.63
2023-01-22T04:17:57.512Z,55.93
2023-01-22T04:20:41.621Z,52.53
2023-01-22T04:23:21.633Z,50.93
2023-01-22T04:25:53.199Z,44.53
2023-01-22T04:28:22.180Z,45.23
2023-01-22T04:30:56.851Z,46.13
2023-01-22T04:33:45.385Z,47.77
2023-01-22T04:36:19.405Z,42.43
2023-01-22T04:38:48.346Z,42.63
2023-01-22T04:41:16.656Z,41.03
2023-01-22T04:43:45.061Z,42.87
2023-01-22T04:46:15.577Z,42.90
2023-01-22T04:48:43.995Z,38.37
2023-01-22T04:51:12.390Z,40.57
2023-01-22T04:53:40.846Z,35.90
2023-01-22T04:56:09.977Z,38.07
2023-01-22T04:58:39.365Z,34.50
2023-01-22T05:01:08.122Z,36.17
2023-01-22T05:03:37.725Z,30.77
2023-01-22T05:06:08.792Z,30.77
2023-01-22T05:08:39.400Z,32.97
2023-01-22T05:11:07.902Z,31.97
2023-01-22T05:13:43.511Z,29.67
2023-01-22T05:16:11.856Z,28.27
2023-01-22T05:18:41.707Z,30.20
2023-01-22T05:21:10.145Z,25.33
2023-01-22T05:23:39.493Z,28.13
2023-01-22T05:26:08.786Z,26.93
2023-01-22T05:28:42.018Z,24.27
2023-01-22T05:31:30.811Z,24.30
2023-01-22T05:34:09.141Z,26.00
2023-01-22T05:36:39.356Z,24.90
2023-01-22T05:39:14.836Z,20.67
2023-01-22T05:41:43.393Z,23.20
2023-01-22T05:44:12.602Z,21.23
2023-01-22T05:46:42.320Z,21.70
2023-01-22T05:49:23.623Z,19.50
2023-01-22T05:51:55.502Z,23.70
2023-01-22T05:54:23.940Z,24.17
2023-01-22T05:56:53.192Z,20.90
2023-01-22T05:59:21.600Z,22.97
2023-01-22T06:01:56.381Z,19.67
2023-01-22T06:04:26.634Z,21.60
2023-01-22T06:06:54.988Z,20.23
2023-01-22T06:09:25.433Z,19.77
2023-01-22T06:11:53.841Z,18.13
2023-01-22T06:14:22.366Z,19.70
2023-01-22T06:16:51.156Z,17.03
2023-01-22T06:19:46.663Z,19.30
2023-01-22T06:22:19.232Z,17.70
2023-01-22T06:24:57.769Z,18.77
2023-01-22T06:27:33.772Z,21.70
2023-01-22T06:30:02.743Z,17.57
2023-01-22T06:32:32.170Z,17.70
2023-01-22T06:35:02.968Z,15.77
2023-01-22T06:37:31.349Z,18.50
2023-01-22T06:40:00.255Z,16.43
2023-01-22T06:42:39.286Z,15.30
2023-01-22T06:45:09.571Z,19.33
2023-01-22T06:47:44.893Z,15.60
2023-01-22T06:50:16.174Z,18.83
2023-01-22T06:52:44.607Z,16.47
2023-01-22T06:55:13.153Z,15.87
2023-01-22T06:57:41.493Z,17.63
2023-01-22T07:00:11.596Z,17.23
2023-01-22T07:02:41.078Z,15.63
2023-01-22T07:05:09.976Z,14.67
2023-01-22T07:07:40.550Z,17.80
2023-01-22T07:10:09.910Z,16.37
2023-01-22T07:12:38.288Z,18.40
2023-01-22T07:15:08.013Z,22.43
2023-01-22T07:17:37.472Z,20.83
2023-01-22T07:20:06.459Z,18.03
2023-01-22T07:22:34.693Z,18.07
2023-01-22T07:25:04.521Z,14.40
2023-01-22T07:27:34.979Z,18.47
2023-01-22T07:30:03.636Z,16.40
2023-01-22T07:32:31.921Z,17.30
2023-01-22T07:35:00.228Z,18.00
2023-01-22T07:37:28.515Z,15.33
2023-01-22T07:39:56.783Z,17.03
2023-01-22T07:42:26.408Z,15.37
2023-01-22T07:44:54.696Z,16.83
2023-01-22T07:47:22.960Z,16.47
2023-01-22T07:49:51.212Z,18.03
2023-01-22T07:52:19.484Z,19.70
2023-01-22T07:54:47.760Z,17.17
2023-01-22T07:57:16.748Z,14.90
2023-01-22T07:59:46.470Z,19.53
2023-01-22T08:02:15.770Z,15.37
2023-01-22T08:04:44.436Z,13.57
2023-01-22T08:07:17.819Z,18.30
2023-01-22T08:09:46.418Z,14.23
2023-01-22T08:12:14.780Z,15.97
2023-01-22T08:14:43.127Z,15.10
2023-01-22T08:17:12.758Z,15.87
2023-01-22T08:19:41.484Z,16.80
2023-01-22T08:22:10.049Z,13.17
2023-01-22T08:24:39.126Z,13.63
2023-01-22T08:27:07.384Z,16.03
2023-01-22T08:29:35.792Z,16.33
2023-01-22T08:32:04.263Z,16.63
2023-01-22T08:34:33.979Z,15.67
2023-01-22T08:37:02.363Z,16.57
2023-01-22T08:39:31.000Z,18.23
2023-01-22T08:41:59.409Z,16.63
2023-01-22T08:44:27.789Z,14.23
2023-01-22T08:46:56.147Z,14.37
2023-01-22T08:49:24.595Z,15.23
2023-01-22T08:51:55.035Z,18.63
2023-01-22T08:54:23.650Z,15.83
2023-01-22T08:56:51.936Z,13.13
2023-01-22T08:59:20.246Z,15.87
2023-01-22T09:01:48.638Z,16.03
2023-01-22T09:04:16.955Z,14.40
2023-01-22T09:06:45.363Z,14.77
2023-01-22T09:09:15.238Z,14.77
2023-01-22T09:11:44.458Z,15.93
2023-01-22T09:14:12.797Z,16.03
2023-01-22T09:16:41.570Z,14.43
2023-01-22T09:19:09.925Z,19.57
2023-01-22T09:21:38.409Z,14.30
2023-01-22T09:24:07.897Z,16.83
2023-01-22T09:26:38.073Z,17.57
2023-01-22T09:29:06.975Z,14.50
2023-01-22T09:31:36.019Z,15.93
2023-01-22T09:34:04.661Z,15.57
2023-01-22T09:36:33.351Z,16.33
2023-01-22T09:39:01.564Z,14.10
2023-01-22T09:41:34.110Z,17.50
2023-01-22T09:44:08.486Z,16.80
2023-01-22T09:46:42.491Z,14.57
2023-01-22T09:49:16.063Z,16.10
2023-01-22T09:51:46.558Z,14.33
2023-01-22T09:54:16.287Z,14.60
2023-01-22T09:56:46.459Z,17.87
2023-01-22T09:59:18.871Z,18.33
2023-01-22T10:01:52.534Z,16.27
2023-01-22T10:04:32.125Z,18.70
2023-01-22T10:07:02.673Z,18.33
2023-01-22T10:09:33.482Z,19.80
2023-01-22T10:12:10.696Z,19.03
2023-01-22T10:14:43.228Z,17.70
2023-01-22T10:17:19.896Z,19.97
2023-01-22T10:19:51.824Z,16.97
2023-01-22T10:22:22.525Z,18.03
2023-01-22T10:24:51.882Z,16.60
2023-01-22T10:27:22.331Z,18.80
2023-01-22T10:30:02.742Z,19.93
2023-01-22T10:32:32.716Z,20.47
2023-01-22T10:35:03.849Z,17.70
2023-01-22T10:37:43.178Z,20.33
2023-01-22T10:40:23.644Z,18.30
2023-01-22T10:43:02.916Z,18.70
2023-01-22T10:45:32.574Z,20.83
2023-01-22T10:48:14.842Z,15.73
2023-01-22T10:50:45.232Z,17.90
2023-01-22T10:53:21.119Z,17.23
2023-01-22T10:55:55.343Z,22.40
2023-01-22T10:58:27.292Z,19.77
2023-01-22T11:01:03.060Z,21.47
2023-01-22T11:03:35.077Z,17.23
2023-01-22T11:06:07.831Z,15.13
2023-01-22T11:08:44.782Z,16.67
2023-01-22T11:11:15.755Z,18.20
2023-01-22T11:13:51.698Z,18.40
2023-01-22T11:16:22.773Z,14.10
2023-01-22T11:18:57.024Z,13.70
2023-01-22T11:21:30.128Z,16.30
2023-01-22T11:24:04.735Z,14.70
2023-01-22T11:26:56.256Z,13.50
2023-01-22T11:29:45.118Z,17.30
2023-01-22T11:32:35.060Z,15.43
2023-01-22T11:35:14.659Z,16.63
2023-01-22T11:37:54.333Z,14.80
2023-01-22T11:40:27.592Z,12.80
2023-01-22T11:43:18.184Z,12.80
2023-01-22T11:45:57.569Z,15.37
2023-01-22T11:48:40.797Z,15.83
2023-01-22T11:51:22.420Z,20.33
2023-01-22T11:54:01.815Z,16.13
2023-01-22T11:56:49.629Z,15.83
2023-01-22T11:59:27.222Z,16.80
2023-01-22T12:02:10.037Z,18.30
2023-01-22T12:05:11.469Z,16.57
2023-01-22T12:08:28.194Z,17.30
2023-01-22T12:11:34.716Z,17.00
2023-01-22T12:14:28.844Z,18.03
2023-01-22T12:17:06.359Z,17.47
2023-01-22T12:20:19.380Z,16.20
2023-01-22T12:22:54.843Z,17.87
2023-01-22T12:25:32.721Z,13.80
2023-01-22T12:28:09.472Z,17.20
2023-01-22T12:30:46.346Z,16.43
2023-01-22T12:33:20.022Z,14.67
2023-01-22T12:35:51.446Z,15.00
2023-01-22T12:38:34.281Z,14.87
2023-01-22T12:41:19.332Z,13.83
2023-01-22T12:43:52.635Z,14.50
2023-01-22T12:46:29.504Z,15.63
2023-01-22T12:49:05.106Z,15.60
2023-01-22T12:51:39.703Z,15.00
2023-01-22T12:54:23.877Z,16.67
2023-01-22T12:56:56.509Z,15.83
2023-01-22T12:59:33.647Z,17.60
2023-01-22T13:02:04.560Z,20.50
2023-01-22T13:04:34.673Z,15.07
2023-01-22T13:07:07.734Z,15.70
2023-01-22T13:09:38.413Z,14.77
2023-01-22T13:12:10.750Z,16.30
2023-01-22T13:14:43.152Z,14.80
2023-01-22T13:17:21.540Z,16.17
2023-01-22T13:19:51.351Z,17.30
2023-01-22T13:22:23.003Z,14.30
2023-01-22T13:24:55.186Z,13.80
2023-01-22T13:27:26.957Z,15.40
2023-01-22T13:30:08.037Z,14.30
2023-01-22T13:32:36.491Z,14.60
2023-01-22T13:35:06.196Z,15.37
2023-01-22T13:37:35.885Z,17.93
2023-01-22T13:40:15.388Z,17.70
2023-01-22T13:42:47.143Z,17.23
2023-01-22T13:45:20.517Z,18.47
2023-01-22T13:47:49.194Z,18.00
2023-01-22T13:50:22.909Z,15.07
2023-01-22T13:52:51.580Z,14.47
2023-01-22T13:55:23.536Z,13.10
2023-01-22T13:57:54.033Z,17.13
2023-01-22T14:00:28.619Z,15.63
2023-01-22T14:02:57.683Z,14.00
2023-01-22T14:05:28.734Z,11.97
2023-01-22T14:08:06.328Z,11.30
2023-01-22T14:10:36.212Z,11.53
2023-01-22T14:13:06.654Z,14.77
2023-01-22T14:15:35.512Z,13.07
2023-01-22T14:18:09.518Z,14.20
2023-01-22T14:20:40.501Z,12.00
2023-01-22T14:23:09.556Z,15.07
2023-01-22T14:25:40.246Z,13.60
2023-01-22T14:28:09.124Z,17.73
2023-01-22T14:30:38.437Z,14.10
2023-01-22T14:33:06.986Z,12.80
2023-01-22T14:35:35.284Z,16.67
2023-01-22T14:38:03.682Z,15.00
2023-01-22T14:40:33.065Z,15.03
2023-01-22T14:43:03.284Z,14.13
2023-01-22T14:45:31.672Z,17.97
2023-01-22T14:48:00.667Z,15.30
2023-01-22T14:50:50.331Z,17.87
2023-01-22T14:53:21.794Z,16.03
2023-01-22T14:56:16.176Z,15.63
2023-01-22T14:58:49.677Z,15.33
2023-01-22T15:01:19.574Z,14.90
2023-01-22T15:03:48.227Z,15.73
2023-01-22T15:06:16.577Z,18.13
2023-01-22T15:08:44.884Z,15.13
2023-01-22T15:11:13.319Z,13.13
2023-01-22T15:13:41.767Z,14.00
2023-01-22T15:16:12.788Z,15.53
2023-01-22T15:18:44.406Z,14.50
2023-01-22T15:21:12.894Z,14.27
2023-01-22T15:23:41.830Z,15.47
2023-01-22T15:26:24.722Z,17.13
2023-01-22T15:28:53.052Z,16.63
2023-01-22T15:31:22.830Z,17.10
2023-01-22T15:33:51.999Z,15.30
2023-01-22T15:36:20.689Z,18.47
2023-01-22T15:38:48.975Z,17.53
2023-01-22T15:41:22.397Z,20.47
2023-01-22T15:43:51.926Z,15.73
2023-01-22T15:46:20.795Z,20.50
2023-01-22T15:48:50.643Z,17.20
2023-01-22T15:51:19.746Z,17.93
2023-01-22T15:53:50.697Z,14.63
2023-01-22T15:56:19.947Z,15.07
2023-01-22T15:58:48.804Z,15.53
2023-01-22T16:01:17.896Z,15.37
2023-01-22T16:03:46.640Z,20.77
2023-01-22T16:06:18.281Z,18.37
2023-01-22T16:08:47.754Z,15.17
2023-01-22T16:11:16.928Z,18.27
2023-01-22T16:13:45.392Z,26.37
2023-01-22T16:16:17.036Z,23.73
2023-01-22T16:18:46.123Z,23.50
2023-01-22T16:21:16.992Z,23.87
2023-01-22T16:23:46.874Z,31.57
2023-01-22T16:26:17.420Z,31.07
2023-01-22T16:28:46.625Z,26.70
2023-01-22T16:31:19.077Z,19.87
2023-01-22T16:33:50.848Z,20.60
2023-01-22T16:36:22.263Z,17.83
2023-01-22T16:38:51.026Z,19.80
2023-01-22T16:41:26.144Z,20.13
2023-01-22T16:43:56.605Z,18.90
2023-01-22T16:46:27.309Z,20.07
2023-01-22T16:49:00.606Z,16.63
2023-01-22T16:51:35.606Z,18.17
2023-01-22T16:54:04.820Z,19.37
2023-01-22T16:56:33.590Z,21.37
2023-01-22T16:59:05.000Z,28.87
2023-01-22T17:01:33.301Z,23.00
2023-01-22T17:04:01.626Z,28.13
2023-01-22T17:06:34.628Z,23.73
2023-01-22T17:09:02.905Z,22.00
2023-01-22T17:11:31.266Z,24.73
2023-01-22T17:14:01.098Z,17.67
2023-01-22T17:16:29.493Z,19.90
2023-01-22T17:18:59.133Z,19.07
2023-01-22T17:21:28.644Z,16.67
2023-01-22T17:23:58.435Z,15.20
2023-01-22T17:26:26.901Z,15.87
2023-01-22T17:28:55.420Z,19.00
2023-01-22T17:31:24.691Z,16.33
2023-01-22T17:33:55.390Z,20.13
2023-01-22T17:36:25.213Z,18.37
2023-01-22T17:38:53.710Z,16.47
2023-01-22T17:41:24.762Z,18.33
2023-01-22T17:43:55.380Z,17.83
2023-01-22T17:46:26.220Z,24.33
2023-01-22T17:48:54.752Z,21.47
2023-01-22T17:51:24.739Z,21.90
2023-01-22T17:53:54.652Z,23.57
2023-01-22T17:56:26.294Z,19.87
2023-01-22T17:58:56.764Z,17.53
2023-01-22T18:01:28.719Z,23.57
2023-01-22T18:03:57.680Z,22.13
2023-01-22T18:06:26.792Z,21.67
2023-01-22T18:08:55.443Z,20.23
2023-01-22T18:11:27.878Z,20.83
2023-01-22T18:13:57.241Z,20.27
2023-01-22T18:16:26.955Z,20.37
2023-01-22T18:18:56.976Z,22.43
2023-01-22T18:21:25.999Z,21.67
2023-01-22T18:23:54.536Z,22.20
2023-01-22T18:26:26.595Z,24.33
2023-01-22T18:28:56.851Z,26.00
2023-01-22T18:31:26.732Z,28.40
2023-01-22T18:33:56.715Z,27.37
2023-01-22T18:36:26.913Z,24.80
2023-01-22T18:38:55.814Z,27.53
2023-01-22T18:41:27.227Z,26.23
2023-01-22T18:43:57.704Z,23.80
2023-01-22T18:46:29.043Z,21.80
2023-01-22T18:48:59.988Z,24.30
2023-01-22T18:51:29.354Z,21.80
2023-01-22T18:53:58.094Z,22.47
2023-01-22T18:56:27.709Z,22.07
2023-01-22T18:58:56.200Z,22.77
2023-01-22T19:01:26.189Z,23.77
2023-01-22T19:03:56.704Z,24.93
2023-01-22T19:06:26.685Z,22.37
2023-01-22T19:08:56.658Z,25.03
2023-01-22T19:11:27.696Z,28.47
2023-01-22T19:13:57.926Z,53.90
2023-01-22T19:16:27.248Z,37.60
2023-01-22T19:18:57.163Z,41.77
2023-01-22T19:21:27.090Z,46.43
2023-01-22T19:23:57.438Z,37.83
2023-01-22T19:26:28.798Z,34.93
2023-01-22T19:28:59.076Z,26.80
2023-01-22T19:31:29.740Z,22.93
2023-01-22T19:33:59.417Z,21.10
2023-01-22T19:36:29.445Z,23.20
2023-01-22T19:38:59.152Z,21.03
2023-01-22T19:41:29.595Z,28.27
2023-01-22T19:44:00.410Z,27.40
2023-01-22T19:46:29.653Z,23.67
2023-01-22T19:48:58.137Z,24.10
2023-01-22T19:51:27.039Z,30.37
2023-01-22T19:53:55.882Z,26.73
2023-01-22T19:56:26.301Z,24.17
2023-01-22T19:59:00.050Z,30.97
2023-01-22T20:01:28.699Z,28.27
2023-01-22T20:03:56.997Z,28.83
2023-01-22T20:06:28.252Z,22.87
2023-01-22T20:08:58.038Z,26.70
2023-01-22T20:11:26.499Z,25.23
2023-01-22T20:13:57.342Z,28.67
2023-01-22T20:16:27.316Z,28.80
2023-01-22T20:18:56.972Z,28.80
2023-01-22T20:21:26.925Z,30.23
2023-01-22T20:23:55.636Z,28.77
2023-01-22T20:26:24.796Z,30.30
2023-01-22T20:28:53.139Z,27.27
2023-01-22T20:31:24.671Z,27.00
2023-01-22T20:33:54.823Z,24.63
2023-01-22T20:36:23.959Z,27.13
2023-01-22T20:38:54.144Z,24.43
2023-01-22T20:41:23.934Z,27.07
2023-01-22T20:43:53.733Z,26.40
2023-01-22T20:46:25.362Z,25.57
2023-01-22T20:48:54.468Z,27.70
2023-01-22T20:51:24.518Z,26.70
2023-01-22T20:53:54.939Z,26.97
2023-01-22T20:56:27.336Z,28.23
2023-01-22T20:59:00.231Z,29.77
2023-01-22T21:01:30.695Z,29.60
2023-01-22T21:04:00.202Z,28.50
2023-01-22T21:06:30.812Z,28.53
2023-01-22T21:09:01.256Z,29.00
2023-01-22T21:11:31.162Z,27.53
2023-01-22T21:14:01.247Z,28.23
2023-01-22T21:16:34.193Z,29.17
2023-01-22T21:19:04.832Z,33.57
2023-01-22T21:21:36.036Z,29.57
2023-01-22T21:24:04.467Z,32.40
2023-01-22T21:26:34.154Z,31.50
2023-01-22T21:29:06.112Z,27.90
2023-01-22T21:31:36.490Z,32.33
2023-01-22T21:34:08.093Z,29.10
2023-01-22T21:36:38.062Z,30.57
2023-01-22T21:39:08.432Z,36.40
2023-01-22T21:41:37.021Z,30.37
2023-01-22T21:44:23.276Z,33.07
2023-01-22T21:46:53.115Z,29.17
2023-01-22T21:49:24.517Z,24.43
2023-01-22T21:51:55.632Z,28.87
2023-01-22T21:54:26.061Z,29.33
2023-01-22T21:56:55.061Z,31.57
2023-01-22T21:59:23.906Z,30.93
2023-01-22T22:01:54.665Z,34.97
2023-01-22T22:04:24.633Z,33.93
2023-01-22T22:06:53.675Z,31.87
2023-01-22T22:09:24.206Z,36.87
2023-01-22T22:11:55.844Z,31.87
2023-01-22T22:14:24.458Z,39.57
2023-01-22T22:16:54.583Z,34.73
2023-01-22T22:19:23.602Z,31.77
2023-01-22T22:21:52.445Z,31.63
2023-01-22T22:24:21.762Z,31.03
2023-01-22T22:26:50.075Z,32.43
2023-01-22T22:29:18.403Z,33.20
2023-01-22T22:31:46.732Z,34.70
2023-01-22T22:34:16.421Z,31.50
2023-01-22T22:36:44.713Z,33.30
2023-01-22T22:39:13.005Z,36.83
2023-01-22T22:41:41.373Z,29.00
2023-01-22T22:44:11.618Z,35.13
2023-01-22T22:46:41.036Z,32.17
2023-01-22T22:49:13.255Z,32.70
2023-01-22T22:51:44.331Z,34.50
2023-01-22T22:54:15.974Z,33.20
2023-01-22T22:56:45.712Z,32.90
2023-01-22T22:59:14.742Z,33.77
2023-01-22T23:01:43.197Z,35.53
2023-01-22T23:04:12.780Z,33.93
2023-01-22T23:06:44.922Z,36.67
2023-01-22T23:09:15.330Z,37.20
2023-01-22T23:11:43.656Z,36.10
2023-01-22T23:14:12.616Z,38.23
2023-01-22T23:16:42.679Z,33.17
2023-01-22T23:19:15.117Z,35.53
2023-01-22T23:21:45.625Z,35.23
2023-01-22T23:24:15.114Z,37.83
2023-01-22T23:26:44.800Z,36.03
2023-01-22T23:29:15.585Z,38.63
2023-01-22T23:31:43.919Z,42.77
2023-01-22T23:34:14.366Z,35.00
2023-01-22T23:36:45.542Z,35.37
2023-01-22T23:39:15.769Z,37.40
2023-01-22T23:41:44.534Z,36.83
2023-01-22T23:44:12.807Z,35.77
2023-01-22T23:46:41.158Z,33.13
2023-01-22T23:49:09.448Z,32.43
2023-01-22T23:51:41.278Z,40.60
2023-01-22T23:54:11.039Z,38.03
2023-01-22T23:56:39.540Z,36.20
2023-01-22T23:59:07.951Z,35.37
